Time;durP1;ratioP1;P1;durP2;ratioP2;P2;SDS_P1;SDS_P2;PMS_P1;PMS_P2;Temp;Humidity;BMP_temperature;BMP_pressure;BME280_temperature;BME280_humidity;BME280_pressure;Samples;Min_cycle;Max_cycle;Signal;HPM_P1;HPM_P2
2021/12/15 00:02:11;;;;;;;95.45;71.93;;;;;;;24.98;37.27;102771.72;5064021;28;20405;-43
2021/12/15 00:04:39;;;;;;;100.38;72.25;;;;;;;24.87;37.54;102776.56;5064201;28;20028;-42
2021/12/15 00:07:08;;;;;;;97.82;74.70;;;;;;;24.83;37.73;102778.19;5062512;28;20052;-41
2021/12/15 00:09:40;;;;;;;100.95;73.47;;;;;;;24.86;37.73;102782.66;5063976;28;20063;-42
2021/12/15 00:12:09;;;;;;;104.03;72.50;;;;;;;24.93;37.38;102779.44;5063763;28;20021;-41
2021/12/15 00:14:38;;;;;;;96.68;71.07;;;;;;;24.94;37.59;102769.81;5064224;28;20028;-42
2021/12/15 00:17:06;;;;;;;98.97;74.93;;;;;;;24.91;37.18;102773.22;5064057;28;20107;-42
2021/12/15 00:19:35;;;;;;;102.22;72.20;;;;;;;24.88;37.71;102774.00;5063662;28;20032;-42
2021/12/15 00:22:04;;;;;;;101.57;72.25;;;;;;;24.86;37.30;102773.06;5063384;28;20523;-42
2021/12/15 00:24:34;;;;;;;105.35;76.57;;;;;;;24.91;37.58;102767.97;5063705;28;20060;-41
2021/12/15 00:27:03;;;;;;;96.18;71.45;;;;;;;24.87;37.22;102768.69;5063480;28;20435;-41
2021/12/15 00:29:32;;;;;;;104.18;69.57;;;;;;;24.90;37.63;102770.56;5063295;28;20802;-41
2021/12/15 00:32:04;;;;;;;107.95;73.75;;;;;;;24.95;37.19;102758.47;5063421;28;20066;-41
2021/12/15 00:34:35;;;;;;;94.18;71.18;;;;;;;24.60;37.26;102708.13;5062528;28;20038;-41
2021/12/15 00:37:03;;;;;;;96.57;70.03;;;;;;;24.82;37.71;102755.41;5063262;28;20040;-41
2021/12/15 00:39:32;;;;;;;101.65;71.13;;;;;;;24.77;37.57;102758.69;5063455;28;20024;-41
2021/12/15 00:42:01;;;;;;;93.63;69.97;;;;;;;24.77;37.34;102753.44;5063424;28;20386;-42
2021/12/15 00:44:30;;;;;;;104.35;73.10;;;;;;;24.76;37.47;102754.28;5063763;28;20082;-42
2021/12/15 00:46:59;;;;;;;102.03;71.25;;;;;;;24.79;37.76;102752.66;5063545;28;21219;-42
2021/12/15 00:49:27;;;;;;;94.85;71.60;;;;;;;24.83;37.15;102758.91;5063430;28;20032;-40
2021/12/15 00:51:56;;;;;;;96.20;70.90;;;;;;;24.81;37.35;102752.72;5063310;28;20020;-41
2021/12/15 00:54:25;;;;;;;99.45;69.68;;;;;;;24.89;37.05;102753.88;5063135;28;20035;-42
2021/12/15 00:56:55;;;;;;;96.30;69.57;;;;;;;24.91;37.15;102756.56;5062356;28;20020;-41
2021/12/15 00:59:24;;;;;;;94.85;70.35;;;;;;;24.76;37.18;102756.91;5062863;28;20062;-42
2021/12/15 01:01:54;;;;;;;101.80;69.75;;;;;;;24.76;37.54;102755.16;5063288;28;20050;-41
2021/12/15 01:04:26;;;;;;;105.18;72.63;;;;;;;24.80;37.15;102758.81;5063594;28;20025;-41
2021/12/15 01:06:57;;;;;;;100.07;70.35;;;;;;;24.77;37.18;102758.69;5062924;28;20189;-43
2021/12/15 01:09:31;;;;;;;93.28;69.72;;;;;;;24.79;37.14;102767.50;5063313;28;20036;-41
2021/12/15 01:20:21;;;;;;;100.57;74.22;;;;;;;24.79;37.48;102757.91;5059495;28;20496;-42
2021/12/15 01:22:52;;;;;;;99.30;70.72;;;;;;;24.81;37.14;102763.22;5063058;28;20036;-42
2021/12/15 01:25:32;;;;;;;105.07;70.90;;;;;;;24.81;37.30;102765.84;5062508;28;20036;-41
2021/12/15 01:28:01;;;;;;;100.03;71.88;;;;;;;24.72;37.34;102766.41;5062707;28;20059;-41
2021/12/15 01:30:34;;;;;;;95.65;70.00;;;;;;;24.80;36.85;102761.44;5062513;28;20024;-42
2021/12/15 01:33:04;;;;;;;101.47;73.30;;;;;;;24.83;36.81;102766.78;5063078;28;20274;-41
2021/12/15 01:35:35;;;;;;;101.25;70.93;;;;;;;24.86;37.04;102764.28;5066778;28;20032;-42
2021/12/15 01:38:05;;;;;;;95.82;70.25;;;;;;;24.75;37.21;102752.47;5066988;28;20108;-41
2021/12/15 01:40:37;;;;;;;108.70;71.15;;;;;;;24.73;37.35;102762.94;5066748;28;20033;-41
2021/12/15 01:43:16;;;;;;;93.80;68.35;;;;;;;24.69;37.13;102772.38;5066621;28;20078;-42
2021/12/15 01:48:36;;;;;;;102.32;71.22;;;;;;;24.77;37.16;102761.31;5062118;28;20040;-41
2021/12/15 01:51:06;;;;;;;100.85;69.03;;;;;;;24.65;37.35;102762.59;5066506;28;20052;-40
2021/12/15 01:53:36;;;;;;;102.00;71.32;;;;;;;24.67;37.07;102760.91;5066505;28;20106;-41
2021/12/15 01:56:06;;;;;;;100.63;72.40;;;;;;;24.60;37.34;102761.53;5066050;28;20040;-41
2021/12/15 01:58:35;;;;;;;95.57;70.45;;;;;;;24.68;37.16;102764.44;5066076;28;20397;-41
2021/12/15 02:01:07;;;;;;;98.72;71.32;;;;;;;24.69;36.84;102756.63;5066507;28;20032;-41
2021/12/15 02:03:36;;;;;;;97.90;69.15;;;;;;;24.70;37.04;102760.19;5066032;28;20474;-41
2021/12/15 02:06:06;;;;;;;99.80;72.20;;;;;;;24.74;36.83;102754.19;5065626;28;20056;-41
2021/12/15 02:08:35;;;;;;;95.75;70.28;;;;;;;24.68;37.10;102767.94;5066418;28;20108;-41
2021/12/15 02:11:04;;;;;;;102.60;71.40;;;;;;;24.65;36.90;102761.69;5066006;28;20093;-41
2021/12/15 02:13:33;;;;;;;101.90;73.18;;;;;;;24.77;37.12;102767.44;5065971;28;20044;-41
2021/12/15 02:16:05;;;;;;;98.65;71.75;;;;;;;24.75;36.84;102776.09;5066216;28;20059;-40
2021/12/15 02:18:36;;;;;;;105.60;72.40;;;;;;;24.65;37.15;102765.22;5066380;28;20032;-40
2021/12/15 02:21:08;;;;;;;97.78;70.05;;;;;;;24.64;37.03;102773.03;5066290;28;20032;-41
2021/12/15 02:23:42;;;;;;;92.97;68.85;;;;;;;24.60;37.09;102772.03;5066094;28;20029;-41
2021/12/15 02:26:14;;;;;;;100.88;71.10;;;;;;;24.73;36.79;102774.31;5066181;28;20030;-41
2021/12/15 02:28:46;;;;;;;107.50;71.35;;;;;;;24.77;36.79;102774.44;5065688;28;20470;-41
2021/12/15 02:31:19;;;;;;;105.82;73.68;;;;;;;24.71;36.69;102775.09;5065966;28;20692;-42
2021/12/15 02:33:57;;;;;;;99.50;72.25;;;;;;;24.76;37.00;102772.66;5065941;28;20064;-42
2021/12/15 02:39:14;;;;;;;100.05;70.82;;;;;;;24.69;36.81;102781.97;5061745;28;20072;-43
2021/12/15 02:41:44;;;;;;;103.82;72.18;;;;;;;24.70;37.10;102773.31;5065566;28;20076;-42
2021/12/15 02:44:17;;;;;;;107.95;70.53;;;;;;;24.66;37.21;102782.72;5065215;28;20118;-43
2021/12/15 02:46:47;;;;;;;100.43;72.70;;;;;;;24.72;36.69;102780.41;5065350;28;20059;-43
2021/12/15 02:49:20;;;;;;;105.15;73.32;;;;;;;24.70;37.07;102773.31;5065348;28;20025;-42
2021/12/15 02:51:51;;;;;;;107.57;77.53;;;;;;;24.72;36.90;102772.53;5048025;28;20056;-41
2021/12/15 02:54:21;;;;;;;112.25;77.10;;;;;;;24.72;36.70;102774.25;5065966;28;20039;-41
2021/12/15 02:56:52;;;;;;;109.75;75.35;;;;;;;24.63;36.88;102781.72;5065421;28;20028;-41
2021/12/15 02:59:25;;;;;;;104.80;74.00;;;;;;;24.76;36.72;102783.16;5065413;28;20067;-41
2021/12/15 03:02:02;;;;;;;107.65;78.63;;;;;;;24.71;36.83;102775.97;5065041;28;20555;-42
2021/12/15 03:05:02;;;;;;;102.03;73.55;;;;;;;24.67;37.11;102778.41;5065250;28;20089;-41
2021/12/15 03:15:46;;;;;;;117.10;81.13;;;;;;;24.76;37.00;102768.28;5061383;28;20125;-42
2021/12/15 03:18:18;;;;;;;107.63;76.82;;;;;;;24.72;36.90;102761.16;5063431;28;20040;-41
2021/12/15 03:21:05;;;;;;;111.38;79.57;;;;;;;24.69;37.01;102764.50;5063661;28;20051;-42
2021/12/15 03:23:42;;;;;;;110.22;77.78;;;;;;;24.72;36.96;102759.41;5064384;28;20105;-41
2021/12/15 03:26:12;;;;;;;111.32;77.95;;;;;;;24.72;36.96;102766.41;5065055;28;20043;-41
2021/12/15 03:37:21;;;;;;;115.68;80.50;;;;;;;24.69;36.78;102761.00;5064337;28;20739;-41
2021/12/15 03:39:51;;;;;;;116.70;82.68;;;;;;;24.67;37.02;102762.66;5064269;28;20025;-42
2021/12/15 03:42:23;;;;;;;117.72;81.57;;;;;;;24.60;36.88;102763.22;5064324;28;20107;-42
2021/12/15 03:44:53;;;;;;;113.78;82.50;;;;;;;24.66;36.90;102758.25;5064058;28;20473;-41
2021/12/15 03:47:24;;;;;;;119.78;81.60;;;;;;;24.61;37.05;102757.16;5064155;28;20024;-41
2021/12/15 03:49:54;;;;;;;117.63;82.20;;;;;;;24.58;36.75;102760.56;5064048;28;20120;-41
2021/12/15 03:52:23;;;;;;;111.10;81.05;;;;;;;24.65;36.99;102764.31;5064130;28;20036;-41
2021/12/15 03:54:51;;;;;;;117.10;79.45;;;;;;;24.60;36.69;102763.22;5062807;28;20115;-42
2021/12/15 03:57:21;;;;;;;116.15;79.65;;;;;;;24.60;37.01;102758.00;5063495;28;20082;-41
2021/12/15 03:59:50;;;;;;;117.43;82.07;;;;;;;24.62;36.56;102765.09;5062441;28;20096;-41
2021/12/15 04:02:20;;;;;;;113.20;81.22;;;;;;;24.65;36.90;102773.09;5064104;28;20041;-42
2021/12/15 04:04:50;;;;;;;110.97;83.43;;;;;;;24.67;36.63;102767.91;5064035;28;20135;-43
2021/12/15 04:07:19;;;;;;;118.32;82.45;;;;;;;24.68;36.65;102764.44;5063682;28;20131;-45
2021/12/15 04:09:50;;;;;;;120.18;80.57;;;;;;;24.61;36.93;102765.03;5063772;28;20060;-41
2021/12/15 04:12:19;;;;;;;114.85;81.50;;;;;;;24.64;36.59;102763.44;5063815;28;20036;-42
2021/12/15 04:14:55;;;;;;;126.40;83.68;;;;;;;24.65;36.91;102766.94;5062252;28;20556;-43
2021/12/15 04:17:26;;;;;;;114.72;82.00;;;;;;;24.67;36.67;102762.66;5063895;28;20036;-41
2021/12/15 04:20:04;;;;;;;118.00;83.50;;;;;;;24.62;36.55;102764.19;5064011;28;20123;-42
2021/12/15 04:22:33;;;;;;;121.07;82.95;;;;;;;24.61;36.64;102765.03;5062357;28;20543;-42
2021/12/15 04:25:04;;;;;;;123.25;86.10;;;;;;;24.61;36.63;102762.41;5063644;28;20040;-42
2021/12/15 04:27:33;;;;;;;120.90;81.85;;;;;;;24.60;36.73;102755.38;5062323;28;20040;-42
2021/12/15 04:30:02;;;;;;;128.93;85.93;;;;;;;24.55;36.84;102755.19;5063544;28;20119;-42
2021/12/15 04:32:37;;;;;;;125.57;84.35;;;;;;;24.61;36.84;102765.03;5063496;28;20382;-42
2021/12/15 04:35:06;;;;;;;125.55;87.70;;;;;;;24.58;36.63;102758.81;5063981;28;20028;-42
2021/12/15 04:37:35;;;;;;;125.60;86.28;;;;;;;24.61;36.51;102762.41;5063377;28;20028;-41
2021/12/15 04:40:06;;;;;;;132.48;92.45;;;;;;;24.56;36.65;102759.59;5063604;28;20075;-42
2021/12/15 04:42:37;;;;;;;134.13;89.63;;;;;;;24.61;36.55;102767.66;5063451;28;20033;-42
2021/12/15 04:45:07;;;;;;;126.88;88.85;;;;;;;24.49;36.56;102760.22;5062337;28;20056;-42
2021/12/15 04:47:37;;;;;;;133.63;91.15;;;;;;;24.50;36.71;102767.22;5063640;28;20035;-42
2021/12/15 04:50:07;;;;;;;122.50;87.28;;;;;;;24.45;36.77;102767.06;5063466;28;20043;-42
2021/12/15 04:52:36;;;;;;;121.18;79.07;;;;;;;24.42;37.07;102774.78;5062973;28;20037;-42
2021/12/15 04:55:06;;;;;;;110.03;76.53;;;;;;;24.40;36.94;102769.50;5063467;28;20031;-43
2021/12/15 04:57:35;;;;;;;110.70;75.95;;;;;;;24.46;36.93;102779.34;5063434;28;20028;-42
2021/12/15 05:00:08;;;;;;;105.97;70.45;;;;;;;24.45;36.94;102769.69;5063404;28;20032;-43
2021/12/15 05:02:36;;;;;;;99.53;68.55;;;;;;;24.58;36.30;102779.81;5061965;28;20032;-43
2021/12/15 05:05:06;;;;;;;100.57;69.00;;;;;;;24.52;36.77;102773.44;5063222;28;20033;-42
2021/12/15 05:07:35;;;;;;;93.93;63.45;;;;;;;24.52;36.28;102776.06;5064039;28;20044;-42
2021/12/15 05:10:05;;;;;;;87.82;60.65;;;;;;;24.50;36.62;102775.09;5069880;28;20040;-43
2021/12/15 05:12:33;;;;;;;83.07;57.22;;;;;;;24.48;36.30;102774.16;5070063;28;20063;-42
2021/12/15 05:15:01;;;;;;;81.18;56.63;;;;;;;24.42;36.46;102778.34;5069600;28;20433;-42
2021/12/15 05:17:30;;;;;;;83.70;53.53;;;;;;;24.51;36.54;102780.44;5069561;28;20028;-42
2021/12/15 05:20:02;;;;;;;73.50;52.15;;;;;;;24.43;36.66;102780.13;5069579;28;20024;-42
2021/12/15 05:22:30;;;;;;;73.20;49.13;;;;;;;24.51;36.24;102777.81;5069735;28;20042;-45
2021/12/15 05:24:59;;;;;;;73.38;49.97;;;;;;;24.56;36.22;102780.59;5054791;28;20038;-42
2021/12/15 05:27:28;;;;;;;72.63;48.25;;;;;;;24.53;36.44;102775.22;5069703;28;20038;-42
2021/12/15 05:29:57;;;;;;;71.30;47.38;;;;;;;24.53;36.08;102777.84;5069991;28;20035;-42
2021/12/15 05:32:26;;;;;;;65.50;45.10;;;;;;;24.56;36.02;102780.59;5069955;28;20150;-43
2021/12/15 05:34:58;;;;;;;60.33;41.60;;;;;;;24.49;36.28;102784.72;5068470;28;20035;-44
2021/12/15 05:37:27;;;;;;;58.58;40.53;;;;;;;24.53;36.11;102788.34;5069274;28;20036;-44
2021/12/15 05:39:56;;;;;;;58.25;39.45;;;;;;;24.42;36.38;102788.81;5069295;28;20059;-42
2021/12/15 05:42:26;;;;;;;52.90;37.58;;;;;;;24.45;35.94;102785.41;5069823;28;20028;-42
2021/12/15 05:44:56;;;;;;;54.50;36.60;;;;;;;24.39;36.25;102788.69;5068799;28;20067;-41
2021/12/15 05:47:25;;;;;;;53.83;35.50;;;;;;;24.44;35.95;102783.63;5069749;28;20040;-42
2021/12/15 05:49:55;;;;;;;53.42;33.75;;;;;;;24.47;36.07;102782.88;5069727;28;20480;-42
2021/12/15 05:52:27;;;;;;;47.35;33.00;;;;;;;24.46;36.35;102779.34;5069597;28;20028;-43
2021/12/15 05:54:57;;;;;;;48.95;32.53;;;;;;;24.41;36.25;102783.50;5069014;28;20086;-42
2021/12/15 05:57:25;;;;;;;43.75;31.02;;;;;;;24.47;35.83;102786.38;5069508;28;20032;-43
2021/12/15 05:59:54;;;;;;;44.42;29.70;;;;;;;24.35;36.39;102789.41;5070162;28;20111;-43
2021/12/15 06:02:23;;;;;;;40.00;27.33;;;;;;;24.42;36.41;102783.56;5069264;28;20436;-42
2021/12/15 06:04:51;;;;;;;39.45;26.90;;;;;;;24.45;36.22;102784.53;5068162;28;20466;-42
2021/12/15 06:07:20;;;;;;;37.20;25.98;;;;;;;24.49;36.07;102789.09;5067753;28;20704;-42
2021/12/15 06:09:49;;;;;;;40.85;27.25;;;;;;;24.43;36.05;102795.88;5069300;28;20210;-42
2021/12/15 06:12:18;;;;;;;39.53;24.90;;;;;;;24.32;36.30;102789.31;5069128;28;20033;-42
2021/12/15 06:14:47;;;;;;;31.92;23.42;;;;;;;24.35;36.19;102789.41;5069388;28;20389;-42
2021/12/15 06:17:14;;;;;;;33.63;22.85;;;;;;;24.43;36.31;102789.69;5069124;28;20459;-43
2021/12/15 06:19:42;;;;;;;32.45;22.60;;;;;;;24.36;36.53;102787.69;5067364;28;20056;-42
2021/12/15 06:22:11;;;;;;;31.02;22.38;;;;;;;24.41;35.95;102787.03;5065965;28;20028;-43
2021/12/15 06:24:40;;;;;;;28.35;20.50;;;;;;;24.42;36.43;102791.44;5065970;28;20114;-42
2021/12/15 06:27:17;;;;;;;29.55;20.95;;;;;;;24.36;36.37;102788.56;5065848;28;20119;-42
2021/12/15 06:29:45;;;;;;;27.58;19.45;;;;;;;24.36;36.45;102795.56;5066237;28;20036;-42
2021/12/15 06:32:14;;;;;;;25.73;18.70;;;;;;;24.32;36.29;102791.94;5065883;28;20043;-42
2021/12/15 06:34:43;;;;;;;29.85;18.83;;;;;;;24.45;35.94;102797.66;5066104;28;20031;-43
2021/12/15 06:37:13;;;;;;;25.17;17.90;;;;;;;24.47;36.21;102794.25;5065854;28;20021;-42
2021/12/15 06:39:42;;;;;;;22.75;16.58;;;;;;;24.46;35.96;102795.09;5065936;28;20112;-43
2021/12/15 06:42:10;;;;;;;20.15;15.93;;;;;;;24.40;36.25;102795.72;5065550;28;20406;-43
2021/12/15 06:44:40;;;;;;;22.77;15.98;;;;;;;24.47;36.10;102796.00;5065861;28;20053;-42
2021/12/15 06:47:18;;;;;;;;;;;;;;;;;;;;;
2021/12/15 07:00:30;;;;;;;16.83;10.88;;;;;;;24.22;36.47;102802.84;5065531;28;20390;-43
2021/12/15 07:02:59;;;;;;;17.05;11.23;;;;;;;24.21;36.29;102809.84;5065559;28;20436;-43
2021/12/15 07:05:29;;;;;;;18.13;10.75;;;;;;;24.21;35.88;102801.97;5065126;28;20059;-43
2021/12/15 07:07:58;;;;;;;14.07;9.82;;;;;;;24.16;35.91;102802.63;5056815;28;20036;-42
2021/12/15 07:10:30;;;;;;;16.20;9.93;;;;;;;24.15;36.44;102809.56;5063903;28;20021;-42
2021/12/15 07:13:00;;;;;;;15.90;10.98;;;;;;;23.93;36.45;102806.00;5065471;28;20478;-42
2021/12/15 07:15:29;;;;;;;14.95;9.98;;;;;;;24.07;36.21;102814.50;5065304;28;20493;-42
2021/12/15 07:18:02;;;;;;;14.73;9.13;;;;;;;24.11;35.95;102819.03;5063638;28;20461;-42
2021/12/15 07:20:54;;;;;;;14.63;9.32;;;;;;;24.04;36.12;102809.13;5065028;28;20591;-43
2021/12/15 07:23:22;;;;;;;12.57;8.93;;;;;;;24.10;36.32;102811.09;5064893;28;20043;-41
2021/12/15 07:25:51;;;;;;;13.93;8.48;;;;;;;24.13;35.88;102816.47;5065157;28;20032;-41
2021/12/15 07:28:24;;;;;;;13.88;8.52;;;;;;;24.10;36.21;102812.00;5063498;28;20037;-42
2021/12/15 07:30:54;;;;;;;10.75;7.25;;;;;;;24.14;35.82;102812.16;5064251;28;20282;-41
2021/12/15 07:33:23;;;;;;;13.00;7.22;;;;;;;24.15;36.03;102819.19;5062962;28;20035;-43
2021/12/15 07:35:52;;;;;;;9.88;6.70;;;;;;;24.17;35.70;102823.66;5064722;28;20024;-43
2021/12/15 07:38:20;;;;;;;9.38;6.25;;;;;;;24.17;35.82;102817.50;5064809;28;20170;-42
2021/12/15 07:40:49;;;;;;;8.82;6.28;;;;;;;24.19;35.71;102814.13;5064888;28;20079;-41
2021/12/15 07:43:27;;;;;;;10.70;5.78;;;;;;;24.14;36.19;102822.63;5064502;28;20032;-42
2021/12/15 07:45:59;;;;;;;11.90;5.53;;;;;;;24.12;35.90;102825.16;5064578;28;20033;-44
2021/12/15 07:48:30;;;;;;;7.82;5.50;;;;;;;24.17;35.84;102822.72;5064296;28;20047;-42
2021/12/15 07:51:00;;;;;;;7.65;4.68;;;;;;;24.18;35.72;102824.53;5064754;28;20033;-41
2021/12/15 07:53:29;;;;;;;7.90;5.35;;;;;;;24.17;35.78;102828.88;5064628;28;20067;-41
2021/12/15 07:55:58;;;;;;;8.48;5.55;;;;;;;24.11;36.04;102823.38;5064202;28;20051;-41
2021/12/15 07:58:28;;;;;;;10.15;5.85;;;;;;;24.18;35.90;102835.94;5064044;28;20398;-42
2021/12/15 08:00:59;;;;;;;8.65;6.40;;;;;;;24.14;36.09;102828.75;5064493;28;20074;-44
2021/12/15 08:03:28;;;;;;;8.23;5.57;;;;;;;24.11;36.35;102832.16;5064343;28;20060;-42
2021/12/15 08:05:57;;;;;;;7.28;5.40;;;;;;;24.18;35.90;102830.69;5063960;28;20080;-42
2021/12/15 08:08:25;;;;;;;11.13;5.15;;;;;;;24.16;36.04;102834.97;5064055;28;20115;-41
2021/12/15 08:10:56;;;;;;;8.88;5.80;;;;;;;24.11;36.12;102837.41;5063813;28;20028;-42
2021/12/15 08:13:27;;;;;;;6.20;4.40;;;;;;;24.19;36.08;102839.44;5064172;28;20086;-43
2021/12/15 08:15:55;;;;;;;8.63;5.35;;;;;;;24.17;36.44;102843.72;5063879;28;20024;-42
2021/12/15 08:18:24;;;;;;;9.30;4.50;;;;;;;24.12;36.11;102841.81;5063737;28;20039;-43
2021/12/15 08:20:53;;;;;;;8.10;4.55;;;;;;;24.19;35.82;102849.91;5063735;28;20119;-42
2021/12/15 08:23:21;;;;;;;8.63;4.07;;;;;;;24.04;36.08;102852.81;5063617;28;20033;-42
2021/12/15 08:25:51;;;;;;;5.88;3.92;;;;;;;24.06;35.93;102853.78;5063706;28;20036;-42
2021/12/15 08:28:20;;;;;;;5.35;3.80;;;;;;;24.11;35.98;102845.28;5063793;28;20040;-43
2021/12/15 08:30:50;;;;;;;7.25;4.22;;;;;;;24.12;35.87;102854.00;5063834;28;20078;-41
2021/12/15 08:33:20;;;;;;;7.28;3.30;;;;;;;24.17;35.54;102849.88;5063540;28;20063;-41
2021/12/15 08:35:53;;;;;;;4.05;3.33;;;;;;;24.18;35.77;102861.25;5063911;28;20401;-42
2021/12/15 08:38:22;;;;;;;6.13;3.70;;;;;;;24.15;35.83;102846.28;5063726;28;20029;-42
2021/12/15 08:40:51;;;;;;;7.40;4.57;;;;;;;24.16;35.72;102862.94;5063816;28;20112;-41
2021/12/15 08:43:21;;;;;;;10.15;4.65;;;;;;;24.16;35.73;102866.44;5061606;28;20028;-41
2021/12/15 08:45:55;;;;;;;10.25;4.72;;;;;;;24.12;35.68;102859.25;5063708;28;20041;-42
2021/12/15 08:48:23;;;;;;;5.77;4.20;;;;;;;24.14;35.92;102864.59;5063500;28;20950;-42
2021/12/15 08:50:52;;;;;;;8.68;3.83;;;;;;;24.19;36.01;102858.69;5063481;28;20024;-44
2021/12/15 08:53:21;;;;;;;6.95;4.03;;;;;;;24.14;35.72;102856.72;5063193;28;20028;-42
2021/12/15 08:55:51;;;;;;;5.22;3.63;;;;;;;24.11;35.66;102865.34;5062074;28;20032;-42
2021/12/15 08:58:22;;;;;;;5.35;3.58;;;;;;;24.10;35.93;102863.53;5063499;28;20024;-43
2021/12/15 09:00:52;;;;;;;4.85;3.63;;;;;;;24.14;35.68;102859.34;5063394;28;20474;-42
2021/12/15 09:03:21;;;;;;;5.28;3.30;;;;;;;24.16;36.00;102868.19;5063408;28;20024;-42
2021/12/15 09:05:52;;;;;;;4.05;3.15;;;;;;;24.17;35.60;102865.59;5063215;28;20053;-42
2021/12/15 09:08:23;;;;;;;7.13;3.42;;;;;;;24.12;36.14;102865.41;5063381;28;20024;-41
2021/12/15 09:10:54;;;;;;;3.63;2.50;;;;;;;24.08;35.64;102863.50;5063158;28;20033;-42
2021/12/15 09:13:29;;;;;;;5.97;2.80;;;;;;;24.06;35.44;102848.53;5063320;28;20481;-42
2021/12/15 09:16:00;;;;;;;5.47;3.05;;;;;;;24.15;35.94;102866.38;5063438;28;20060;-42
2021/12/15 09:18:28;;;;;;;4.18;2.90;;;;;;;24.20;35.61;102860.50;5063443;28;20121;-42
2021/12/15 09:20:56;;;;;;;3.38;2.58;;;;;;;24.15;35.93;102867.25;5061914;28;20421;-43
2021/12/15 09:23:24;;;;;;;8.80;3.50;;;;;;;24.13;35.83;102863.69;5061505;28;20062;-42
2021/12/15 09:25:53;;;;;;;7.05;2.80;;;;;;;24.17;35.55;102869.94;5063049;28;20198;-42
2021/12/15 09:28:21;;;;;;;4.28;3.15;;;;;;;24.14;35.43;102864.59;5063056;28;20440;-42
2021/12/15 09:30:51;;;;;;;4.55;3.20;;;;;;;24.21;35.66;102871.88;5063324;28;20033;-42
2021/12/15 09:33:23;;;;;;;6.05;2.97;;;;;;;24.16;35.92;102871.69;5062903;28;20028;-41
2021/12/15 09:35:52;;;;;;;5.72;2.83;;;;;;;24.12;35.85;102867.13;5062924;28;20137;-42
2021/12/15 09:38:22;;;;;;;4.07;2.65;;;;;;;24.07;35.92;102869.56;5063303;28;20118;-43
2021/12/15 09:40:56;;;;;;;4.10;2.75;;;;;;;24.14;35.77;102875.06;5060864;28;20039;-41
2021/12/15 09:43:27;;;;;;;4.60;2.80;;;;;;;24.18;35.89;102884.84;5062734;28;20108;-42
2021/12/15 09:57:46;;;;;;;3.55;2.03;;;;;;;24.26;35.58;102891.31;5066267;28;20052;-42
2021/12/15 10:03:09;;;;;;;4.57;2.78;;;;;;;24.17;36.04;102899.69;5066073;28;20444;-42
2021/12/15 10:05:43;;;;;;;6.68;3.28;;;;;;;24.25;35.90;102898.28;5066394;28;20499;-42
2021/12/15 10:19:36;;;;;;;4.97;2.35;;;;;;;24.23;35.81;102909.53;5059005;28;20037;-42
2021/12/15 10:22:39;;;;;;;4.18;2.88;;;;;;;24.21;35.42;102895.47;5066415;28;20052;-42
2021/12/15 10:25:11;;;;;;;5.15;2.53;;;;;;;24.26;35.67;102912.31;5058300;28;20409;-42
2021/12/15 10:27:46;;;;;;;4.00;2.60;;;;;;;24.31;35.33;102917.75;5065717;28;20119;-42
2021/12/15 10:30:15;;;;;;;2.42;1.90;;;;;;;24.30;35.40;102914.22;5066179;28;20036;-42
2021/12/15 10:32:45;;;;;;;4.30;2.13;;;;;;;24.28;35.47;102915.88;5066188;28;20017;-42
2021/12/15 10:35:19;;;;;;;2.13;1.83;;;;;;;24.25;35.42;102914.00;5066255;28;20047;-42
2021/12/15 10:38:06;;;;;;;;;;;;;;;24.46;35.39;102920.13;5066369;28;20059;-42
2021/12/15 10:40:41;;;;;;;2.22;1.70;;;;;;;24.38;35.61;102911.94;5058506;28;19939;-42
2021/12/15 10:43:10;;;;;;;3.35;1.75;;;;;;;24.37;35.47;102910.13;5064412;28;20138;-42
2021/12/15 10:45:42;;;;;;;3.05;1.92;;;;;;;24.37;35.73;102910.13;5065638;28;20576;-44
2021/12/15 10:48:20;;;;;;;3.55;2.17;;;;;;;24.28;35.83;102911.53;5065976;28;20086;-43
2021/12/15 10:50:50;;;;;;;3.67;2.55;;;;;;;24.30;35.78;102901.13;5065893;28;20111;-43
2021/12/15 10:53:32;;;;;;;7.18;2.60;;;;;;;24.37;35.75;102904.91;5064308;28;20028;-43
2021/12/15 10:56:01;;;;;;;4.47;2.28;;;;;;;24.32;35.44;102909.94;5064399;28;20504;-42
2021/12/15 10:58:42;;;;;;;5.95;2.67;;;;;;;24.36;35.80;102913.59;5065671;28;20397;-42
2021/12/15 11:01:41;;;;;;;7.28;2.70;;;;;;;24.35;35.60;102912.69;5064361;28;20052;-42
2021/12/15 11:04:29;;;;;;;3.38;2.25;;;;;;;24.33;35.52;102910.84;5063514;28;20037;-43
2021/12/15 11:07:18;;;;;;;3.50;1.85;;;;;;;24.32;35.71;102911.66;5055427;28;20037;-45
2021/12/15 11:09:49;;;;;;;2.33;1.95;;;;;;;24.25;35.59;102900.91;5062520;28;20154;-43
2021/12/15 11:12:24;;;;;;;3.22;2.00;;;;;;;24.28;35.63;102897.53;5065264;28;20044;-43
2021/12/15 11:15:01;;;;;;;3.50;1.92;;;;;;;24.16;36.07;102890.03;5065469;28;20512;-42
2021/12/15 11:17:34;;;;;;;4.63;2.28;;;;;;;24.19;35.59;102895.41;5063849;28;20122;-42
2021/12/15 11:20:05;;;;;;;2.38;1.73;;;;;;;24.30;35.83;102892.34;5065087;28;20028;-43
2021/12/15 11:22:37;;;;;;;2.33;1.73;;;;;;;24.33;35.60;102898.59;5065234;28;20033;-43
2021/12/15 11:25:11;;;;;;;3.95;2.53;;;;;;;24.37;35.73;102894.41;5064866;28;20029;-45
2021/12/15 11:27:41;;;;;;;6.13;2.75;;;;;;;24.34;35.82;102892.53;5064682;28;20028;-40
2021/12/15 11:30:14;;;;;;;5.05;3.05;;;;;;;24.32;35.45;102891.59;5064807;28;20035;-41
2021/12/15 11:32:46;;;;;;;7.75;2.92;;;;;;;24.25;35.76;102884.28;5065114;28;20111;-41
2021/12/15 11:35:19;;;;;;;4.53;2.60;;;;;;;24.24;35.99;102885.09;5064983;28;20032;-42
2021/12/15 11:37:51;;;;;;;5.30;2.53;;;;;;;24.31;35.68;102884.56;5064579;28;20493;-42
2021/12/15 11:40:32;;;;;;;4.45;2.55;;;;;;;24.37;35.65;102883.91;5064647;28;20271;-41
2021/12/15 11:43:01;;;;;;;4.65;2.72;;;;;;;24.26;35.77;102879.09;5064483;28;20115;-41
2021/12/15 11:45:30;;;;;;;3.90;2.22;;;;;;;24.28;35.48;102880.06;5064578;28;20054;-41
2021/12/15 11:48:12;;;;;;;3.83;2.60;;;;;;;24.28;35.93;102877.44;5064386;28;20032;-42
2021/12/15 11:50:43;;;;;;;4.47;2.30;;;;;;;24.28;35.66;102876.56;5063263;28;20059;-42
2021/12/15 11:53:32;;;;;;;4.63;2.58;;;;;;;24.26;35.96;102880.84;5064803;28;20032;-41
2021/12/15 11:56:21;;;;;;;4.47;2.55;;;;;;;24.31;35.66;102879.31;5064607;28;20112;-42
2021/12/15 11:58:53;;;;;;;2.58;1.92;;;;;;;24.30;35.72;102876.59;5061434;28;20083;-42
2021/12/15 12:01:46;;;;;;;3.47;2.00;;;;;;;24.40;35.44;102873.56;5064558;28;20043;-42
2021/12/15 12:04:18;;;;;;;2.10;1.60;;;;;;;24.41;35.36;102876.22;5058105;28;20055;-41
2021/12/15 12:06:50;;;;;;;2.55;1.80;;;;;;;24.39;35.26;102875.25;5064089;28;20055;-42
2021/12/15 12:09:20;;;;;;;1.60;1.38;;;;;;;24.38;35.34;102865.59;5064583;28;21108;-42
2021/12/15 12:11:54;;;;;;;3.85;1.85;;;;;;;24.35;35.60;102865.47;5063890;28;20505;-42
2021/12/15 12:14:48;;;;;;;4.13;2.60;;;;;;;24.34;35.71;102865.41;5063879;28;20603;-42
2021/12/15 12:17:15;;;;;;;7.22;2.40;;;;;;;24.40;35.25;102856.06;5063336;28;20032;-42
2021/12/15 12:19:49;;;;;;;6.97;3.15;;;;;;;24.38;35.26;102864.72;5064049;28;20032;-42
2021/12/15 12:22:18;;;;;;;3.63;2.35;;;;;;;24.38;35.50;102862.09;5062676;28;20396;-42
2021/12/15 12:24:49;;;;;;;4.50;2.05;;;;;;;24.37;35.40;102862.94;5063985;28;20074;-42
2021/12/15 12:27:18;;;;;;;9.68;3.08;;;;;;;24.34;35.55;102857.53;5063745;28;20032;-42
2021/12/15 12:29:47;;;;;;;3.20;2.35;;;;;;;24.32;35.63;102856.59;5064138;28;20111;-43
2021/12/15 12:32:14;;;;;;;3.75;2.20;;;;;;;24.33;35.50;102848.75;5062547;28;20055;-43
2021/12/15 12:34:43;;;;;;;3.35;2.10;;;;;;;24.39;35.27;102850.78;5063864;28;20031;-42
2021/12/15 12:37:13;;;;;;;4.78;2.67;;;;;;;24.31;35.46;102845.22;5063642;28;20024;-41
2021/12/15 12:39:45;;;;;;;4.38;2.60;;;;;;;24.32;35.72;102843.47;5063422;28;20043;-42
2021/12/15 12:42:30;;;;;;;4.45;3.13;;;;;;;24.37;35.73;102850.69;5063802;28;20029;-41